Time;durP1;ratioP1;P1;durP2;ratioP2;P2;SDS_P1;SDS_P2;PMS_P1;PMS_P2;Temp;Humidity;BMP_temperature;BMP_pressure;BME280_temperature;BME280_humidity;BME280_pressure;Samples;Min_cycle;Max_cycle;Signal;HPM_P1;HPM_P2
2022/05/25 00:00:18;;;;;;;10.52;5.35;;;;;;;;;;5013338;28;20065;-71
2022/05/25 00:02:50;;;;;;;7.90;5.22;;;;;;;;;;5015901;28;20385;-76
2022/05/25 00:05:17;;;;;;;9.13;5.30;;;;;;;;;;4995566;28;20116;-78
2022/05/25 00:07:43;;;;;;;9.23;5.55;;;;;;;;;;5013617;28;20022;-91
2022/05/25 00:10:09;;;;;;;11.60;5.47;;;;;;;;;;5015054;28;20030;-72
2022/05/25 00:12:36;;;;;;;9.88;5.70;;;;;;;;;;5012384;28;20399;-74
2022/05/25 00:15:02;;;;;;;10.73;5.30;;;;;;;;;;5016055;28;20037;-91
2022/05/25 00:17:28;;;;;;;8.23;5.43;;;;;;;;;;5016984;28;20025;-71
2022/05/25 00:20:00;;;;;;;9.57;5.72;;;;;;;;;;5021016;28;20033;-89
2022/05/25 00:22:28;;;;;;;9.23;5.43;;;;;;;;;;4997797;28;20120;-71
2022/05/25 00:24:57;;;;;;;9.10;5.18;;;;;;;;;;5014291;28;20061;-84
2022/05/25 00:27:23;;;;;;;8.85;5.47;;;;;;;;;;5015566;28;20029;-89
2022/05/25 00:29:49;;;;;;;7.65;5.28;;;;;;;;;;5013640;28;20027;-88
2022/05/25 00:32:16;;;;;;;8.13;5.32;;;;;;;;;;5014323;28;20022;-71
2022/05/25 00:34:42;;;;;;;9.60;5.35;;;;;;;;;;5015356;28;20037;-90
2022/05/25 00:37:08;;;;;;;9.63;5.50;;;;;;;;;;5014808;28;20044;-89
2022/05/25 00:39:35;;;;;;;10.80;5.57;;;;;;;;;;5002268;28;20478;-89
2022/05/25 00:42:05;;;;;;;8.02;5.72;;;;;;;;;;4999861;28;20030;-90
2022/05/25 00:44:31;;;;;;;7.90;5.47;;;;;;;;;;5015783;28;20056;-71
2022/05/25 00:46:57;;;;;;;10.45;5.97;;;;;;;;;;5020153;28;20071;-71
2022/05/25 00:49:26;;;;;;;8.50;5.68;;;;;;;;;;5021971;28;20037;-82
2022/05/25 00:51:58;;;;;;;6.63;5.35;;;;;;;;;;5003938;28;20380;-86
2022/05/25 00:54:33;;;;;;;8.40;5.63;;;;;;;;;;5027727;28;20478;-75
2022/05/25 00:57:01;;;;;;;10.00;5.32;;;;;;;;;;5023669;28;20033;-88
2022/05/25 00:59:32;;;;;;;8.80;6.07;;;;;;;;;;5023887;28;20023;-83
2022/05/25 01:02:10;;;;;;;7.30;5.30;;;;;;;;;;5033927;28;20061;-83
2022/05/25 01:04:41;;;;;;;8.43;5.43;;;;;;;;;;5012062;28;20134;-76
2022/05/25 01:07:09;;;;;;;9.80;5.63;;;;;;;;;;5026539;28;20033;-71
2022/05/25 01:09:54;;;;;;;7.40;5.43;;;;;;;;;;5028354;28;20142;-71
2022/05/25 01:12:20;;;;;;;7.25;5.43;;;;;;;;;;5028309;28;20072;-70
2022/05/25 01:15:01;;;;;;;10.75;5.85;;;;;;;;;;5028253;28;20034;-71
2022/05/25 01:17:41;;;;;;;9.00;5.55;;;;;;;;;;5027740;28;20029;-70
2022/05/25 01:20:28;;;;;;;8.70;5.70;;;;;;;;;;5032846;28;20025;-71
2022/05/25 01:23:13;;;;;;;9.80;6.10;;;;;;;;;;5016245;28;20172;-71
2022/05/25 01:25:45;;;;;;;8.48;5.32;;;;;;;;;;5034738;28;20053;-71
2022/05/25 01:28:20;;;;;;;9.50;5.50;;;;;;;;;;5032654;28;20037;-70
2022/05/25 01:30:48;;;;;;;7.57;5.30;;;;;;;;;;5034172;28;20070;-72
2022/05/25 01:33:18;;;;;;;9.52;5.63;;;;;;;;;;5013673;28;20141;-70
2022/05/25 01:35:59;;;;;;;10.18;5.43;;;;;;;;;;5032244;28;20029;-70
2022/05/25 01:38:44;;;;;;;8.10;5.25;;;;;;;;;;5030965;28;20109;-76
2022/05/25 01:41:12;;;;;;;8.77;5.53;;;;;;;;;;5034033;28;20033;-72
2022/05/25 01:43:51;;;;;;;8.80;5.85;;;;;;;;;;5027222;28;20034;-90
2022/05/25 01:46:20;;;;;;;8.13;5.43;;;;;;;;;;5028099;28;20503;-71
2022/05/25 01:48:48;;;;;;;16.85;5.75;;;;;;;;;;5023219;28;20483;-71
2022/05/25 01:51:17;;;;;;;8.02;5.43;;;;;;;;;;5024127;28;20022;-73
2022/05/25 01:53:45;;;;;;;9.23;5.38;;;;;;;;;;5025736;28;20021;-88
2022/05/25 01:56:12;;;;;;;8.70;5.63;;;;;;;;;;5049452;28;20372;-77
2022/05/25 01:58:49;;;;;;;9.02;5.68;;;;;;;;;;5033906;28;20487;-88
2022/05/25 02:01:15;;;;;;;8.35;5.70;;;;;;;;;;5000486;28;20041;-88
2022/05/25 02:06:43;;;;;;;9.23;5.65;;;;;;;;;;5035170;28;20098;-78
2022/05/25 02:09:13;;;;;;;12.77;5.88;;;;;;;;;;5010121;28;20091;-72
2022/05/25 02:11:44;;;;;;;7.80;5.55;;;;;;;;;;5039515;28;20050;-79
2022/05/25 02:14:22;;;;;;;9.30;5.80;;;;;;;;;;5044694;28;20021;-77
2022/05/25 02:16:51;;;;;;;9.02;6.10;;;;;;;;;;5047260;28;20483;-70
2022/05/25 02:19:23;;;;;;;8.80;5.70;;;;;;;;;;5035266;28;20018;-77
2022/05/25 02:22:02;;;;;;;10.75;6.00;;;;;;;;;;5025146;28;20034;-70
2022/05/25 02:24:30;;;;;;;6.57;5.50;;;;;;;;;;5028598;28;20034;-71
2022/05/25 02:27:02;;;;;;;8.10;5.45;;;;;;;;;;5026078;28;20026;-71
2022/05/25 02:29:36;;;;;;;11.70;6.10;;;;;;;;;;5025165;28;20033;-71
2022/05/25 02:32:38;;;;;;;;;;;;;;;;;;;;;
2022/05/25 02:35:05;;;;;;;12.13;6.20;;;;;;;;;;5014186;28;20038;-72
2022/05/25 02:37:32;;;;;;;7.50;5.53;;;;;;;;;;5018177;28;20112;-70
2022/05/25 02:40:00;;;;;;;12.32;6.03;;;;;;;;;;5017924;28;20537;-71
2022/05/25 02:42:26;;;;;;;7.82;5.78;;;;;;;;;;5022704;28;20034;-77
2022/05/25 02:44:52;;;;;;;8.73;5.78;;;;;;;;;;5018120;28;20442;-88
2022/05/25 02:47:19;;;;;;;9.80;6.10;;;;;;;;;;5023994;28;20357;-71
2022/05/25 02:49:53;;;;;;;11.77;6.00;;;;;;;;;;5028480;28;20041;-83
2022/05/25 02:52:21;;;;;;;11.52;6.35;;;;;;;;;;5025467;28;20030;-70
2022/05/25 02:54:47;;;;;;;10.18;5.88;;;;;;;;;;5026371;28;20034;-73
2022/05/25 02:57:13;;;;;;;9.77;5.93;;;;;;;;;;5028081;28;20026;-73
2022/05/25 02:59:39;;;;;;;12.20;5.85;;;;;;;;;;5028337;28;20382;-70
2022/05/25 03:02:05;;;;;;;8.85;5.97;;;;;;;;;;5032569;28;20524;-90
2022/05/25 03:04:32;;;;;;;9.73;5.65;;;;;;;;;;5039573;28;20475;-89
2022/05/25 03:06:58;;;;;;;10.20;5.90;;;;;;;;;;5038998;28;20025;-89
2022/05/25 03:09:25;;;;;;;11.10;6.00;;;;;;;;;;5044810;28;20025;-90
2022/05/25 03:11:53;;;;;;;9.93;6.20;;;;;;;;;;5031924;28;21833;-73
2022/05/25 03:14:22;;;;;;;11.63;6.03;;;;;;;;;;4995235;28;20141;-87
2022/05/25 03:16:48;;;;;;;7.25;5.60;;;;;;;;;;5012015;28;20476;-70
2022/05/25 03:19:14;;;;;;;8.07;6.00;;;;;;;;;;5014426;28;20026;-71
2022/05/25 03:21:40;;;;;;;10.43;5.93;;;;;;;;;;5013994;28;20088;-92
2022/05/25 03:24:07;;;;;;;18.90;6.75;;;;;;;;;;5013360;28;20107;-70
2022/05/25 03:26:33;;;;;;;16.17;6.80;;;;;;;;;;5014119;28;20087;-71
2022/05/25 03:28:59;;;;;;;13.20;6.57;;;;;;;;;;5014289;28;20041;-86
2022/05/25 03:31:25;;;;;;;10.02;6.53;;;;;;;;;;5013379;28;20040;-70
2022/05/25 03:33:51;;;;;;;10.63;6.57;;;;;;;;;;5021172;28;20160;-92
2022/05/25 03:36:17;;;;;;;13.25;7.20;;;;;;;;;;5013135;28;20072;-91
2022/05/25 03:38:43;;;;;;;14.48;6.93;;;;;;;;;;5014131;28;20100;-85
2022/05/25 03:41:40;;;;;;;12.88;7.85;;;;;;;;;;5012612;28;20044;-90
2022/05/25 03:44:06;;;;;;;13.18;7.80;;;;;;;;;;4997684;28;20045;-88
2022/05/25 03:46:32;;;;;;;12.23;7.68;;;;;;;;;;5013866;28;20018;-80
2022/05/25 03:49:01;;;;;;;15.02;6.95;;;;;;;;;;5014002;28;20029;-91
2022/05/25 03:51:34;;;;;;;22.33;7.47;;;;;;;;;;5015083;28;20483;-85
2022/05/25 03:54:00;;;;;;;11.90;7.30;;;;;;;;;;5015219;28;20079;-75
2022/05/25 03:56:28;;;;;;;9.35;7.22;;;;;;;;;;5021446;28;20398;-91
2022/05/25 03:59:22;;;;;;;12.65;7.22;;;;;;;;;;5015536;28;20065;-91
2022/05/25 04:01:51;;;;;;;17.55;7.63;;;;;;;;;;5041883;28;20021;-82
2022/05/25 04:04:18;;;;;;;13.13;7.70;;;;;;;;;;5037624;28;20038;-88
2022/05/25 04:06:44;;;;;;;11.73;7.85;;;;;;;;;;5015552;28;20027;-91
2022/05/25 04:09:10;;;;;;;11.98;7.40;;;;;;;;;;5013336;28;20029;-71
2022/05/25 04:11:39;;;;;;;14.00;7.90;;;;;;;;;;5012543;28;20447;-71
2022/05/25 04:14:05;;;;;;;11.57;7.40;;;;;;;;;;5016778;28;20053;-91
2022/05/25 04:16:32;;;;;;;16.77;7.95;;;;;;;;;;5020559;28;20042;-71
2022/05/25 04:18:58;;;;;;;8.20;7.07;;;;;;;;;;5013452;28;20054;-93
2022/05/25 04:21:24;;;;;;;8.38;7.28;;;;;;;;;;5013605;28;20480;-93
2022/05/25 04:23:51;;;;;;;10.43;7.85;;;;;;;;;;5023222;28;20088;-93
2022/05/25 04:26:23;;;;;;;17.20;8.50;;;;;;;;;;5019902;28;20428;-92
2022/05/25 04:28:49;;;;;;;11.05;8.18;;;;;;;;;;5012991;28;20037;-92
2022/05/25 04:31:16;;;;;;;14.60;8.35;;;;;;;;;;4998897;28;20021;-88
2022/05/25 04:33:42;;;;;;;9.95;7.78;;;;;;;;;;4993172;28;20110;-76
2022/05/25 04:36:08;;;;;;;10.57;7.63;;;;;;;;;;4996123;28;20027;-92
2022/05/25 04:38:36;;;;;;;13.50;8.00;;;;;;;;;;4992245;28;20022;-92
2022/05/25 04:41:03;;;;;;;10.25;8.02;;;;;;;;;;4994395;28;20034;-89
2022/05/25 04:43:29;;;;;;;11.13;8.82;;;;;;;;;;4998012;28;20041;-86
2022/05/25 04:45:55;;;;;;;11.40;8.35;;;;;;;;;;5002602;28;20036;-92
2022/05/25 04:49:15;;;;;;;16.35;8.55;;;;;;;;;;5017964;28;20026;-89
2022/05/25 04:51:41;;;;;;;15.85;8.98;;;;;;;;;;4930950;29;20106;-91
2022/05/25 04:54:07;;;;;;;11.85;7.90;;;;;;;;;;4940494;29;20091;-85
2022/05/25 04:59:18;;;;;;;16.00;7.85;;;;;;;;;;4929032;29;20139;-90
2022/05/25 05:01:44;;;;;;;10.55;8.02;;;;;;;;;;4921274;29;20031;-79
2022/05/25 05:07:05;;;;;;;21.60;8.10;;;;;;;;;;4937403;29;20051;-75
2022/05/25 05:09:37;;;;;;;11.75;7.90;;;;;;;;;;4932299;29;20503;-76
2022/05/25 05:12:22;;;;;;;;;;;;;;;;;;;;;
2022/05/25 05:14:58;;;;;;;11.10;7.25;;;;;;;;;;4933523;29;20046;-88
2022/05/25 05:17:24;;;;;;;8.43;7.15;;;;;;;;;;4922951;29;20497;-79
2022/05/25 05:19:50;;;;;;;8.35;6.90;;;;;;;;;;4916956;29;20031;-72
2022/05/25 05:22:17;;;;;;;10.18;6.95;;;;;;;;;;4931363;29;20083;-72
2022/05/25 05:24:43;;;;;;;9.02;6.97;;;;;;;;;;4952258;28;20042;-72
2022/05/25 05:27:10;;;;;;;10.32;6.80;;;;;;;;;;5021060;28;20026;-71
2022/05/25 05:29:36;;;;;;;16.48;7.65;;;;;;;;;;5025735;28;20018;-71
2022/05/25 05:32:05;;;;;;;22.30;7.28;;;;;;;;;;5022610;28;20021;-70
2022/05/25 05:34:34;;;;;;;13.15;6.55;;;;;;;;;;5016768;28;20017;-69
2022/05/25 05:37:16;;;;;;;10.48;6.53;;;;;;;;;;4995620;28;20030;-75
2022/05/25 05:39:54;;;;;;;13.82;7.00;;;;;;;;;;4988193;28;20025;-78
2022/05/25 05:42:21;;;;;;;13.60;6.45;;;;;;;;;;5009187;28;20061;-84
2022/05/25 05:44:56;;;;;;;12.43;7.00;;;;;;;;;;5011908;28;20048;-79
2022/05/25 05:47:26;;;;;;;11.43;6.90;;;;;;;;;;5017221;28;20045;-76
2022/05/25 05:49:53;;;;;;;15.13;6.53;;;;;;;;;;5016396;28;20080;-79
2022/05/25 05:52:19;;;;;;;9.40;5.95;;;;;;;;;;5022409;28;20025;-73
2022/05/25 05:54:45;;;;;;;10.15;6.55;;;;;;;;;;5024614;28;20029;-78
2022/05/25 05:57:12;;;;;;;10.63;6.40;;;;;;;;;;5017454;28;20022;-77
2022/05/25 05:59:41;;;;;;;15.73;5.82;;;;;;;;;;4999306;28;20037;-70
2022/05/25 06:02:07;;;;;;;30.98;6.80;;;;;;;;;;5019250;28;20029;-72
2022/05/25 06:04:33;;;;;;;12.38;6.57;;;;;;;;;;5023707;28;20041;-71
2022/05/25 06:06:59;;;;;;;9.52;5.93;;;;;;;;;;5025456;28;20091;-77
2022/05/25 06:09:26;;;;;;;15.82;6.20;;;;;;;;;;5010313;28;20396;-79
2022/05/25 06:11:52;;;;;;;17.95;6.30;;;;;;;;;;5021016;28;20045;-76
2022/05/25 06:14:18;;;;;;;10.38;5.97;;;;;;;;;;5017752;28;20025;-75
2022/05/25 06:19:37;;;;;;;14.05;6.68;;;;;;;;;;4986984;28;20044;-74
2022/05/25 06:22:03;;;;;;;9.52;6.07;;;;;;;;;;5019765;28;20021;-84
2022/05/25 06:24:30;;;;;;;11.88;6.75;;;;;;;;;;5024271;28;20041;-79
2022/05/25 06:26:57;;;;;;;16.55;6.78;;;;;;;;;;5020798;28;20097;-79
2022/05/25 06:29:23;;;;;;;11.65;6.50;;;;;;;;;;5016994;28;20044;-81
2022/05/25 06:31:49;;;;;;;11.73;6.30;;;;;;;;;;5020949;28;20060;-84
2022/05/25 06:34:16;;;;;;;10.80;6.72;;;;;;;;;;5018474;28;20026;-77
2022/05/25 06:36:43;;;;;;;23.20;7.97;;;;;;;;;;5017998;28;20105;-81
2022/05/25 06:39:09;;;;;;;12.00;6.35;;;;;;;;;;5013994;28;20042;-76
2022/05/25 06:41:35;;;;;;;10.07;6.68;;;;;;;;;;5019479;28;20029;-82
2022/05/25 06:44:01;;;;;;;9.43;6.85;;;;;;;;;;5009589;28;20499;-77
2022/05/25 06:46:27;;;;;;;9.00;5.97;;;;;;;;;;5000343;28;20044;-77
2022/05/25 06:48:54;;;;;;;12.52;6.75;;;;;;;;;;5012177;28;20061;-76
2022/05/25 06:51:25;;;;;;;11.43;6.75;;;;;;;;;;5016402;28;20026;-77
2022/05/25 06:53:51;;;;;;;13.80;6.47;;;;;;;;;;4995354;28;20509;-82
2022/05/25 06:56:20;;;;;;;21.27;6.70;;;;;;;;;;5020533;28;20040;-81
2022/05/25 06:58:47;;;;;;;12.75;6.22;;;;;;;;;;5010154;28;20034;-85
2022/05/25 07:01:13;;;;;;;10.60;6.38;;;;;;;;;;5024210;28;20022;-76
2022/05/25 07:03:40;;;;;;;17.95;6.63;;;;;;;;;;5021477;28;20163;-76
2022/05/25 07:06:06;;;;;;;14.77;6.45;;;;;;;;;;5012021;28;20030;-74
2022/05/25 07:08:32;;;;;;;14.15;6.03;;;;;;;;;;5010001;28;20029;-81
2022/05/25 07:11:00;;;;;;;14.95;6.30;;;;;;;;;;5003000;28;20407;-78
2022/05/25 07:13:27;;;;;;;10.63;6.05;;;;;;;;;;5010456;28;20022;-74
2022/05/25 07:15:57;;;;;;;11.68;6.32;;;;;;;;;;4998648;28;20120;-74
2022/05/25 07:18:23;;;;;;;12.00;5.93;;;;;;;;;;5013681;28;20033;-78
2022/05/25 07:20:49;;;;;;;10.20;6.50;;;;;;;;;;5013496;28;20480;-79
2022/05/25 07:23:15;;;;;;;9.90;6.50;;;;;;;;;;5017220;28;20101;-77
2022/05/25 07:25:42;;;;;;;12.50;6.25;;;;;;;;;;5018382;28;20029;-74
2022/05/25 07:28:08;;;;;;;10.13;6.00;;;;;;;;;;5012025;28;20037;-77
2022/05/25 07:30:34;;;;;;;8.45;5.88;;;;;;;;;;5024979;28;20021;-76
2022/05/25 07:33:02;;;;;;;9.90;6.82;;;;;;;;;;5012835;28;20068;-75
2022/05/25 07:35:28;;;;;;;14.57;6.72;;;;;;;;;;5022009;28;20026;-75
2022/05/25 07:37:56;;;;;;;11.57;6.40;;;;;;;;;;5012445;28;20104;-72
2022/05/25 07:40:31;;;;;;;13.48;6.25;;;;;;;;;;5011700;28;20042;-75
2022/05/25 07:43:00;;;;;;;13.13;6.80;;;;;;;;;;5007957;28;20057;-75
2022/05/25 07:45:26;;;;;;;15.32;7.68;;;;;;;;;;5014931;28;20428;-75
2022/05/25 07:47:54;;;;;;;12.25;7.32;;;;;;;;;;4991942;28;20023;-81
2022/05/25 07:50:21;;;;;;;19.35;7.05;;;;;;;;;;5012255;28;20018;-77
2022/05/25 07:52:48;;;;;;;14.38;6.75;;;;;;;;;;5013380;28;20375;-77
2022/05/25 07:55:14;;;;;;;17.70;7.10;;;;;;;;;;5019717;28;20057;-75
2022/05/25 07:57:41;;;;;;;16.73;7.72;;;;;;;;;;5017008;28;20018;-81
2022/05/25 08:00:07;;;;;;;14.77;7.13;;;;;;;;;;5012551;28;20076;-78
2022/05/25 08:08:06;;;;;;;17.15;7.20;;;;;;;;;;5002317;28;20068;-78
2022/05/25 08:10:32;;;;;;;14.38;7.80;;;;;;;;;;5016503;28;20105;-80
2022/05/25 08:12:59;;;;;;;18.10;8.15;;;;;;;;;;5012926;28;20154;-80
2022/05/25 08:15:27;;;;;;;16.05;7.40;;;;;;;;;;5015049;28;20037;-81
2022/05/25 08:17:53;;;;;;;21.98;8.13;;;;;;;;;;4994185;28;20033;-79
2022/05/25 08:20:21;;;;;;;11.48;7.18;;;;;;;;;;5022503;28;20075;-81
2022/05/25 08:22:47;;;;;;;19.02;7.85;;;;;;;;;;5019644;28;20018;-80
2022/05/25 08:25:15;;;;;;;12.13;7.10;;;;;;;;;;5019320;28;20037;-79
2022/05/25 08:27:41;;;;;;;15.75;7.18;;;;;;;;;;5017152;28;20356;-78
2022/05/25 08:30:14;;;;;;;11.38;7.28;;;;;;;;;;5024058;28;20025;-79
2022/05/25 08:32:41;;;;;;;10.23;6.70;;;;;;;;;;4996128;28;20029;-81
2022/05/25 08:35:07;;;;;;;15.07;7.50;;;;;;;;;;5012178;28;20034;-79
2022/05/25 08:37:33;;;;;;;15.25;7.32;;;;;;;;;;5015380;28;20093;-78
2022/05/25 08:39:59;;;;;;;22.30;8.43;;;;;;;;;;5011891;28;20045;-82
2022/05/25 08:42:28;;;;;;;39.63;10.65;;;;;;;;;;5002636;28;20045;-79
2022/05/25 08:44:56;;;;;;;13.90;7.65;;;;;;;;;;4994563;28;20122;-78
2022/05/25 08:47:22;;;;;;;29.88;8.52;;;;;;;;;;4996543;28;20032;-74
2022/05/25 08:49:49;;;;;;;29.17;8.88;;;;;;;;;;5029546;28;20025;-84
2022/05/25 08:52:24;;;;;;;16.40;7.90;;;;;;;;;;4994674;28;20045;-81
2022/05/25 08:54:50;;;;;;;11.65;7.72;;;;;;;;;;5011828;28;20496;-83
2022/05/25 08:57:29;;;;;;;15.82;7.30;;;;;;;;;;5010404;28;20041;-76
2022/05/25 09:00:05;;;;;;;12.50;6.95;;;;;;;;;;5014862;28;20530;-80
2022/05/25 09:02:52;;;;;;;13.13;6.55;;;;;;;;;;5014743;28;20049;-81
2022/05/25 09:05:34;;;;;;;14.57;7.32;;;;;;;;;;5013575;28;20344;-80
2022/05/25 09:08:23;;;;;;;63.45;10.18;;;;;;;;;;5012013;28;20026;-84
2022/05/25 09:10:52;;;;;;;333.48;34.50;;;;;;;;;;5020978;28;20036;-81
2022/05/25 09:13:23;;;;;;;11.88;6.20;;;;;;;;;;5018917;28;20034;-81
2022/05/25 09:18:38;;;;;;;12.48;6.78;;;;;;;;;;5013507;28;20165;-81
2022/05/25 09:21:05;;;;;;;12.68;6.50;;;;;;;;;;4994171;28;20076;-84
2022/05/25 09:23:31;;;;;;;16.63;6.70;;;;;;;;;;5018733;28;20025;-77
2022/05/25 09:25:57;;;;;;;12.90;5.90;;;;;;;;;;5018251;28;20119;-80
2022/05/25 09:28:26;;;;;;;14.70;6.40;;;;;;;;;;5006278;28;20031;-74
2022/05/25 09:30:54;;;;;;;8.85;6.18;;;;;;;;;;5006997;28;20030;-82
2022/05/25 09:33:30;;;;;;;10.02;6.03;;;;;;;;;;5008872;28;20092;-80
2022/05/25 09:36:00;;;;;;;10.82;6.32;;;;;;;;;;5012553;28;20033;-78
2022/05/25 09:38:35;;;;;;;14.13;6.30;;;;;;;;;;4994570;28;20030;-77
2022/05/25 09:41:09;;;;;;;10.63;6.28;;;;;;;;;;5012228;28;20080;-75
2022/05/25 09:43:36;;;;;;;13.18;6.40;;;;;;;;;;4994026;28;20045;-76
2022/05/25 09:46:08;;;;;;;9.75;5.78;;;;;;;;;;5018437;28;20139;-77
2022/05/25 09:48:40;;;;;;;10.37;6.27;;;;;;;;;;5016422;28;20494;-75
2022/05/25 09:51:25;;;;;;;9.37;6.20;;;;;;;;;;4992914;28;20276;-78
2022/05/25 09:53:53;;;;;;;13.93;6.20;;;;;;;;;;4993522;28;20033;-74
2022/05/25 09:56:26;;;;;;;10.93;6.68;;;;;;;;;;5003085;28;20026;-77
2022/05/25 09:58:55;;;;;;;15.65;7.00;;;;;;;;;;5030060;28;20030;-78
2022/05/25 10:01:21;;;;;;;11.75;6.53;;;;;;;;;;5020962;28;20511;-77
2022/05/25 10:03:48;;;;;;;9.90;6.60;;;;;;;;;;5008607;28;20033;-78
2022/05/25 10:06:18;;;;;;;11.43;6.60;;;;;;;;;;5000741;28;20030;-78
2022/05/25 10:08:45;;;;;;;18.05;7.20;;;;;;;;;;5016639;28;20068;-74
2022/05/25 10:11:33;;;;;;;24.52;8.85;;;;;;;;;;5000848;28;20049;-73
2022/05/25 10:14:14;;;;;;;18.10;6.65;;;;;;;;;;5015117;28;20053;-73
2022/05/25 10:16:41;;;;;;;11.25;5.68;;;;;;;;;;4996991;28;20450;-74
2022/05/25 10:19:14;;;;;;;17.48;6.40;;;;;;;;;;5021653;28;20022;-76
2022/05/25 10:21:46;;;;;;;15.95;5.57;;;;;;;;;;5010176;28;20041;-72
2022/05/25 10:24:21;;;;;;;10.13;5.57;;;;;;;;;;5027854;28;20563;-75
2022/05/25 10:26:49;;;;;;;12.93;5.13;;;;;;;;;;5002977;28;20553;-76
2022/05/25 10:38:11;;;;;;;11.63;5.35;;;;;;;;;;4947463;29;20111;-73
2022/05/25 10:40:42;;;;;;;13.25;5.18;;;;;;;;;;4933061;29;20032;-76
2022/05/25 10:43:13;;;;;;;9.23;5.05;;;;;;;;;;4934847;29;20039;-76
2022/05/25 10:45:42;;;;;;;11.18;5.30;;;;;;;;;;4935116;29;20050;-72
2022/05/25 10:48:24;;;;;;;11.18;5.07;;;;;;;;;;4950113;28;20375;-72
2022/05/25 10:50:52;;;;;;;11.70;5.05;;;;;;;;;;4947866;28;20118;-74
2022/05/25 10:53:24;;;;;;;13.00;5.10;;;;;;;;;;4935362;29;20108;-76
2022/05/25 10:56:10;;;;;;;8.13;4.43;;;;;;;;;;4932064;29;20032;-76
2022/05/25 10:58:55;;;;;;;10.82;4.85;;;;;;;;;;4932130;29;20071;-74
2022/05/25 11:01:31;;;;;;;10.63;4.90;;;;;;;;;;4953363;28;20039;-76
2022/05/25 11:04:12;;;;;;;11.23;4.38;;;;;;;;;;4930297;29;20047;-77
2022/05/25 11:06:57;;;;;;;9.50;4.47;;;;;;;;;;4932772;29;20160;-75
2022/05/25 11:09:37;;;;;;;13.32;4.90;;;;;;;;;;4994399;28;20436;-73
2022/05/25 11:12:24;;;;;;;8.48;4.75;;;;;;;;;;5018296;28;20056;-79
2022/05/25 11:14:50;;;;;;;12.98;4.90;;;;;;;;;;5012730;28;20391;-71
2022/05/25 11:17:39;;;;;;;13.75;4.68;;;;;;;;;;5011928;28;20029;-76
2022/05/25 11:20:18;;;;;;;11.95;5.13;;;;;;;;;;4937790;28;20626;-74
2022/05/25 11:22:46;;;;;;;13.48;4.38;;;;;;;;;;4960564;28;20404;-72
2022/05/25 11:25:12;;;;;;;14.38;5.20;;;;;;;;;;4956345;28;20043;-73
2022/05/25 11:27:41;;;;;;;19.02;4.93;;;;;;;;;;4958644;28;20081;-81
2022/05/25 11:30:16;;;;;;;16.02;4.28;;;;;;;;;;4957828;28;20543;-76
2022/05/25 11:33:01;;;;;;;9.50;4.65;;;;;;;;;;4955582;28;20035;-76
2022/05/25 11:35:27;;;;;;;11.35;4.35;;;;;;;;;;4949378;29;20043;-78
2022/05/25 11:38:17;;;;;;;19.88;5.25;;;;;;;;;;4958484;28;20027;-80
2022/05/25 11:40:52;;;;;;;16.55;4.72;;;;;;;;;;4958454;28;20405;-70
2022/05/25 11:43:31;;;;;;;14.73;4.80;;;;;;;;;;4959414;28;20181;-77
2022/05/25 11:45:57;;;;;;;16.88;4.50;;;;;;;;;;4955964;28;20117;-85
2022/05/25 11:48:39;;;;;;;15.48;7.22;;;;;;;;;;4957402;28;20028;-81
2022/05/25 11:51:11;;;;;;;190.77;99.97;;;;;;;;;;4958037;28;20186;-79
2022/05/25 11:53:40;;;;;;;120.22;80.05;;;;;;;;;;4939818;29;20301;-74
2022/05/25 11:56:26;;;;;;;14.95;5.47;;;;;;;;;;4963791;28;20030;-80
2022/05/25 11:58:52;;;;;;;12.00;4.82;;;;;;;;;;5014579;28;20065;-84
2022/05/25 12:01:27;;;;;;;15.18;6.30;;;;;;;;;;5016723;28;20109;-85
2022/05/25 12:04:05;;;;;;;13.93;5.90;;;;;;;;;;5014721;28;20491;-79
2022/05/25 12:06:47;;;;;;;15.13;5.55;;;;;;;;;;5021817;28;20405;-76
2022/05/25 12:09:24;;;;;;;13.05;6.50;;;;;;;;;;5005399;28;20044;-74
2022/05/25 12:11:50;;;;;;;14.85;5.72;;;;;;;;;;5004730;28;20124;-74
2022/05/25 12:14:31;;;;;;;10.98;5.82;;;;;;;;;;5011729;28;20042;-77
2022/05/25 12:16:59;;;;;;;12.88;5.68;;;;;;;;;;5008135;28;20040;-84
2022/05/25 12:19:27;;;;;;;12.82;4.93;;;;;;;;;;5019539;28;20467;-72
2022/05/25 12:21:58;;;;;;;15.77;5.35;;;;;;;;;;5008182;28;20080;-70
2022/05/25 12:24:33;;;;;;;15.40;6.30;;;;;;;;;;5012127;28;20037;-71
2022/05/25 12:27:01;;;;;;;11.52;5.25;;;;;;;;;;5007271;28;20030;-74
2022/05/25 12:29:30;;;;;;;10.48;5.57;;;;;;;;;;5027035;28;20091;-73
2022/05/25 12:31:57;;;;;;;9.15;5.57;;;;;;;;;;5011348;28;20026;-80
2022/05/25 12:34:28;;;;;;;11.10;5.43;;;;;;;;;;4994682;28;20499;-77
2022/05/25 12:36:54;;;;;;;12.18;5.13;;;;;;;;;;5022535;28;20022;-77
2022/05/25 12:39:43;;;;;;;10.13;5.03;;;;;;;;;;5019739;28;20026;-75
2022/05/25 12:42:25;;;;;;;11.07;5.38;;;;;;;;;;5000270;28;20038;-74
2022/05/25 12:50:39;;;;;;;6.93;5.03;;;;;;;;;;5012529;28;20052;-75
2022/05/25 12:53:24;;;;;;;11.57;5.30;;;;;;;;;;5011108;28;20029;-87
2022/05/25 12:55:54;;;;;;;14.80;5.90;;;;;;;;;;5006952;28;20020;-77
2022/05/25 12:58:52;;;;;;;12.15;6.40;;;;;;;;;;5025497;28;20052;-76
2022/05/25 13:01:27;;;;;;;10.40;5.40;;;;;;;;;;4918992;29;20454;-84
2022/05/25 13:03:56;;;;;;;12.65;5.40;;;;;;;;;;4924626;29;20122;-82
2022/05/25 13:06:23;;;;;;;12.95;5.13;;;;;;;;;;4919382;29;20040;-78
2022/05/25 13:09:12;;;;;;;14.55;6.18;;;;;;;;;;4915651;29;20094;-81
2022/05/25 13:11:44;;;;;;;9.88;5.30;;;;;;;;;;4882129;29;20072;-82
2022/05/25 13:14:15;;;;;;;16.25;5.13;;;;;;;;;;4885187;29;20049;-79
2022/05/25 13:16:45;;;;;;;12.65;5.70;;;;;;;;;;4890937;29;20124;-83
2022/05/25 13:19:21;;;;;;;11.10;5.13;;;;;;;;;;4878920;29;20035;-73
2022/05/25 13:22:02;;;;;;;11.73;5.45;;;;;;;;;;4867001;29;20123;-74
2022/05/25 13:24:46;;;;;;;14.40;5.90;;;;;;;;;;4885169;29;20560;-74
2022/05/25 13:27:12;;;;;;;11.05;5.40;;;;;;;;;;4878148;29;20040;-75
2022/05/25 13:30:02;;;;;;;12.32;5.10;;;;;;;;;;4881021;29;20037;-76
2022/05/25 13:32:47;;;;;;;14.05;6.10;;;;;;;;;;4868222;29;20039;-81
2022/05/25 13:35:22;;;;;;;12.07;5.63;;;;;;;;;;4869908;29;20041;-77
2022/05/25 13:38:08;;;;;;;9.88;5.53;;;;;;;;;;4925159;29;20122;-75
2022/05/25 13:40:42;;;;;;;12.30;5.30;;;;;;;;;;4928935;29;20179;-73
2022/05/25 13:43:12;;;;;;;11.80;5.38;;;;;;;;;;4946716;29;20497;-76
2022/05/25 13:45:40;;;;;;;12.40;5.10;;;;;;;;;;4933609;29;20525;-72
2022/05/25 13:48:10;;;;;;;9.52;5.03;;;;;;;;;;4956775;28;20423;-74
2022/05/25 13:50:38;;;;;;;13.60;5.10;;;;;;;;;;5018672;28;20029;-76
2022/05/25 13:53:12;;;;;;;14.27;5.70;;;;;;;;;;4992993;28;20022;-74
2022/05/25 13:55:44;;;;;;;14.52;5.18;;;;;;;;;;5011123;28;20037;-71
2022/05/25 13:58:15;;;;;;;24.40;5.70;;;;;;;;;;5013915;28;20021;-71
2022/05/25 14:00:43;;;;;;;12.43;5.53;;;;;;;;;;5005972;28;20471;-72
2022/05/25 14:03:16;;;;;;;13.82;5.60;;;;;;;;;;5021967;28;20068;-71
2022/05/25 14:05:45;;;;;;;15.57;6.07;;;;;;;;;;5020058;28;20057;-72
2022/05/25 14:08:16;;;;;;;12.27;5.13;;;;;;;;;;5022668;28;20103;-75
2022/05/25 14:10:58;;;;;;;10.73;5.13;;;;;;;;;;4996883;28;20034;-73
2022/05/25 14:13:31;;;;;;;13.40;5.93;;;;;;;;;;5004515;28;20511;-73
2022/05/25 14:16:03;;;;;;;11.13;4.97;;;;;;;;;;5007651;28;20030;-70
2022/05/25 14:18:31;;;;;;;10.70;4.90;;;;;;;;;;5025890;28;20025;-77
2022/05/25 14:20:58;;;;;;;13.00;5.50;;;;;;;;;;5018227;28;20332;-71
2022/05/25 14:23:28;;;;;;;14.32;5.47;;;;;;;;;;5002361;28;20372;-72
2022/05/25 14:26:02;;;;;;;12.48;5.40;;;;;;;;;;5019518;28;20033;-77
2022/05/25 14:28:36;;;;;;;15.07;5.55;;;;;;;;;;5018152;28;20117;-75
2022/05/25 14:31:05;;;;;;;15.07;5.50;;;;;;;;;;5022256;28;20053;-70
2022/05/25 14:33:31;;;;;;;12.73;5.35;;;;;;;;;;5012972;28;20024;-70
2022/05/25 14:36:00;;;;;;;11.27;5.05;;;;;;;;;;5016194;28;20096;-70
2022/05/25 14:38:31;;;;;;;13.63;5.15;;;;;;;;;;5025669;28;20080;-69
2022/05/25 14:40:57;;;;;;;15.57;4.85;;;;;;;;;;5013019;28;20300;-68
2022/05/25 14:43:43;;;;;;;10.32;5.47;;;;;;;;;;5019967;28;20053;-82
2022/05/25 14:46:17;;;;;;;11.95;5.30;;;;;;;;;;5012041;28;20033;-75
2022/05/25 14:48:44;;;;;;;12.18;5.00;;;;;;;;;;4998776;28;20025;-81
2022/05/25 14:51:11;;;;;;;10.90;5.07;;;;;;;;;;5021741;28;20026;-73
2022/05/25 14:53:37;;;;;;;11.68;5.13;;;;;;;;;;4998147;28;20021;-75
2022/05/25 14:56:06;;;;;;;11.27;4.82;;;;;;;;;;5011665;28;20089;-74
2022/05/25 14:58:51;;;;;;;12.10;4.90;;;;;;;;;;4995983;28;20116;-82
2022/05/25 15:01:18;;;;;;;14.07;5.35;;;;;;;;;;4992487;28;20026;-75
2022/05/25 15:03:50;;;;;;;14.93;4.68;;;;;;;;;;5017298;28;20022;-72
2022/05/25 15:06:30;;;;;;;12.02;4.70;;;;;;;;;;5020875;28;20108;-73
2022/05/25 15:08:56;;;;;;;9.70;4.57;;;;;;;;;;5017266;28;20025;-74
2022/05/25 15:11:22;;;;;;;12.32;4.93;;;;;;;;;;5019736;28;20037;-72
2022/05/25 15:19:26;;;;;;;15.75;5.07;;;;;;;;;;5012030;28;20127;-72
2022/05/25 15:21:56;;;;;;;13.93;4.90;;;;;;;;;;5013398;28;20387;-72
2022/05/25 15:24:23;;;;;;;17.40;4.75;;;;;;;;;;5012796;28;20479;-70
2022/05/25 15:27:10;;;;;;;9.27;4.85;;;;;;;;;;5011852;28;20108;-73
2022/05/25 15:29:48;;;;;;;9.90;4.85;;;;;;;;;;5006306;28;20080;-73
2022/05/25 15:32:14;;;;;;;11.27;5.03;;;;;;;;;;4997731;28;20021;-79
2022/05/25 15:34:40;;;;;;;13.07;4.97;;;;;;;;;;5021005;28;20068;-82
2022/05/25 15:37:34;;;;;;;13.73;5.15;;;;;;;;;;4992976;28;20499;-75